»·PEaware :: N664NT KJFK-KEWR

N664NT :: KJFK-KEWR

FLIGHT INFORMATION

Flight Status: Arrived
Operator: Privately registered:
United States
More flights under this callsign
Pilot: Anonymous 328 (328)
Aircraft: Unknown
(GA7C)
More flights by this aircraft type
Origin: KJFK Kennedy Intl
United States
Destination: KEWR Newark Intl
United States
More flights between these airports :: More routes between these airports
Route: JFK5 V16 DIXIE V276 RBV V249 SBJ
File this flight plan on PilotEdge
Remarks:
Altitude:
(Current/Filed)
6,000ft
Speed:
(Current/Filed)
0kts
Departed: 07-Dec-22 11:01 AM
Arrived: 07-Dec-22 12:00 PM
Distance/Time
Traveled:
18nm/0:59
Distance/Time
To Go:
Arrived

Flight Plot

Page will automatically refresh every two minutes.

Flight plan parsing failed; only flown route is shown


Map Options




Map Legend


Flown Route
Filed Route
Departure Airport
Arrival Airport
Navaid (VOR, NDB)
Fix

Horizontal Profiles

Position Reports

Time Latitude Longitude Heading Altitude Ground
Speed
07-Dec-22 10:49 40.650547 -73.811073 230 20ft 0kts
07-Dec-22 10:50 40.650547 -73.811073 230 20ft 0kts
07-Dec-22 10:51 40.650547 -73.811073 230 20ft 0kts
07-Dec-22 10:52 40.650547 -73.811073 230 20ft 0kts
07-Dec-22 10:53 40.650547 -73.811073 230 20ft 0kts
07-Dec-22 10:54 40.650547 -73.811073 230 20ft 0kts
07-Dec-22 10:55 40.650547 -73.811073 230 20ft 0kts
07-Dec-22 10:56 40.650204 -73.811432 217 20ft 4kts
07-Dec-22 10:57 40.649639 -73.813568 300 20ft 11kts
07-Dec-22 10:58 40.649311 -73.815758 210 21ft 0kts
07-Dec-22 10:59 40.648510 -73.816391 210 21ft 12kts
07-Dec-22 11:00 40.640038 -73.798027 120 595ft 183kts
07-Dec-22 11:01 40.583710 -73.771591 172 4303ft 268kts
07-Dec-22 11:02 40.523952 -73.824074 227 5003ft 281kts
07-Dec-22 11:03 40.472195 -73.896606 226 5001ft 267kts
07-Dec-22 11:04 40.412491 -73.953812 207 5614ft 269kts
07-Dec-22 11:05 40.345345 -73.999405 207 6002ft 272kts
07-Dec-22 11:06 40.278053 -74.044693 207 5270ft 270kts
07-Dec-22 11:07 40.212006 -74.089088 207 4008ft 264kts
07-Dec-22 11:08 40.146450 -74.133057 207 4000ft 264kts
07-Dec-22 11:09 40.112804 -74.207573 288 4005ft 264kts
07-Dec-22 11:10 40.140549 -74.296448 292 3999ft 264kts
07-Dec-22 11:11 40.168385 -74.385681 292 4000ft 264kts
07-Dec-22 11:12 40.196144 -74.475006 292 4000ft 264kts
07-Dec-22 11:13 40.246460 -74.543343 320 4002ft 264kts
07-Dec-22 11:14 40.302998 -74.605240 320 4002ft 264kts
07-Dec-22 11:15 40.369186 -74.645515 340 4001ft 264kts
07-Dec-22 11:16 40.438648 -74.676743 341 4002ft 264kts
07-Dec-22 11:17 40.508339 -74.708115 341 4000ft 264kts
07-Dec-22 11:18 40.578457 -74.737053 1 3997ft 264kts
07-Dec-22 11:19 40.605774 -74.664314 106 4006ft 264kts
07-Dec-22 11:20 40.569912 -74.580383 121 3233ft 259kts
07-Dec-22 11:21 40.537323 -74.510582 121 3006ft 187kts
07-Dec-22 11:22 40.509766 -74.452324 121 3001ft 188kts
07-Dec-22 11:23 40.487522 -74.391571 77 2997ft 188kts
07-Dec-22 11:24 40.503414 -74.326027 71 3001ft 188kts
07-Dec-22 11:25 40.527500 -74.270378 26 3007ft 167kts
07-Dec-22 11:26 40.569092 -74.243584 25 2413ft 164kts
07-Dec-22 11:27 40.608463 -74.218445 25 1563ft 134kts
07-Dec-22 11:28 40.641613 -74.197304 25 873ft 131kts
07-Dec-22 11:29 40.674732 -74.176247 25 453ft 147kts
07-Dec-22 11:30 40.709183 -74.139786 46 1891ft 163kts
07-Dec-22 11:31 40.743107 -74.097031 20 2528ft 186kts
07-Dec-22 11:32 40.792870 -74.094322 306 3884ft 189kts
07-Dec-22 11:33 40.788464 -74.161751 256 4000ft 190kts
07-Dec-22 11:34 40.769588 -74.225174 209 3647ft 195kts
07-Dec-22 11:35 40.722141 -74.257286 206 3000ft 187kts
07-Dec-22 11:36 40.675674 -74.288536 207 3002ft 187kts
07-Dec-22 11:37 40.629063 -74.319885 207 3000ft 187kts
07-Dec-22 11:38 40.582458 -74.351242 207 3000ft 187kts
07-Dec-22 11:39 40.539490 -74.345383 117 3010ft 187kts
07-Dec-22 11:40 40.534245 -74.282593 57 2517ft 192kts
07-Dec-22 11:41 40.573555 -74.240921 26 1998ft 167kts
07-Dec-22 11:42 40.613014 -74.215546 25 1470ft 133kts
07-Dec-22 11:43 40.645863 -74.194565 25 785ft 130kts
07-Dec-22 11:44 40.678257 -74.173874 25 109ft 128kts
07-Dec-22 11:45 40.714054 -74.151131 34 1584ft 139kts
07-Dec-22 11:46 40.746387 -74.110443 47 2494ft 185kts
07-Dec-22 11:47 40.791058 -74.120544 289 3003ft 223kts
07-Dec-22 11:48 40.783901 -74.195854 246 3004ft 208kts
07-Dec-22 11:49 40.759899 -74.265999 228 2998ft 234kts
07-Dec-22 11:50 40.703045 -74.307388 207 3000ft 234kts
07-Dec-22 11:51 40.644783 -74.346596 207 3000ft 234kts
07-Dec-22 11:52 40.585484 -74.380501 173 2979ft 226kts
07-Dec-22 11:53 40.542343 -74.340668 109 2999ft 188kts
07-Dec-22 11:54 40.540527 -74.276680 46 3058ft 188kts
07-Dec-22 11:55 40.582973 -74.235588 28 2007ft 184kts
07-Dec-22 11:56 40.628765 -74.205086 25 1189ft 168kts
07-Dec-22 11:57 40.663841 -74.182877 25 440ft 128kts
07-Dec-22 11:58 40.693169 -74.164330 25 19ft 72kts
07-Dec-22 11:59 40.697475 -74.163406 342 19ft 6kts
07-Dec-22 12:00 40.698952 -74.164856 285 19ft 9kts
07-Dec-22 12:01 40.698650 -74.166222 205 19ft 0kts
07-Dec-22 12:02 40.698650 -74.166222 205 19ft 0kts
07-Dec-22 12:03 40.698650 -74.166222 205 19ft 0kts
07-Dec-22 12:04 40.698650 -74.166222 205 19ft 0kts
07-Dec-22 12:05 40.698650 -74.166222 205 19ft 0kts
07-Dec-22 12:06 40.698650 -74.166222 205 19ft 0kts
07-Dec-22 12:07 40.698650 -74.166222 205 19ft 0kts

Navigation Log

Ident Type
Flight plan parsing failed, navigation log unavailable